createdAt,value
2022-11-29T00:02:03.874Z,34.85
2022-11-29T00:04:33.529Z,35.72
2022-11-29T00:07:01.611Z,35.72
2022-11-29T00:09:30.294Z,36.25
2022-11-29T00:12:13.423Z,35.88
2022-11-29T00:14:42.576Z,31.75
2022-11-29T00:17:11.059Z,33.20
2022-11-29T00:19:40.712Z,32.55
2022-11-29T00:22:08.771Z,32.92
2022-11-29T00:24:36.939Z,33.95
2022-11-29T00:27:05.262Z,31.05
2022-11-29T00:29:33.496Z,33.58
2022-11-29T00:32:01.792Z,33.90
2022-11-29T00:34:30.257Z,33.45
2022-11-29T00:36:59.769Z,32.65
2022-11-29T00:39:28.083Z,32.95
2022-11-29T00:41:57.311Z,34.30
2022-11-29T00:44:25.670Z,32.47
2022-11-29T00:46:53.804Z,33.97
2022-11-29T00:49:22.133Z,34.30
2022-11-29T00:51:50.237Z,31.02
2022-11-29T00:54:19.818Z,31.75
2022-11-29T00:56:47.922Z,30.80
2022-11-29T00:59:16.013Z,33.13
2022-11-29T01:01:44.173Z,31.17
2022-11-29T01:04:12.393Z,32.17
2022-11-29T01:06:40.526Z,30.98
2022-11-29T01:09:09.146Z,28.88
2022-11-29T01:11:38.899Z,32.05
2022-11-29T01:14:07.058Z,31.00
2022-11-29T01:16:36.605Z,29.58
2022-11-29T01:19:05.168Z,28.52
2022-11-29T01:21:33.286Z,28.67
2022-11-29T01:24:02.119Z,28.40
2022-11-29T01:26:32.035Z,29.92
2022-11-29T01:29:04.326Z,29.23
2022-11-29T01:31:36.316Z,26.88
2022-11-29T01:34:06.689Z,28.55
2022-11-29T01:36:34.969Z,29.85
2022-11-29T01:39:05.132Z,28.40
2022-11-29T01:41:35.617Z,29.63
2022-11-29T01:44:07.780Z,31.35
2022-11-29T01:46:37.489Z,30.85
2022-11-29T01:49:10.802Z,30.23
2022-11-29T01:51:42.456Z,27.45
2022-11-29T01:54:12.139Z,27.30
2022-11-29T01:56:40.950Z,29.42
2022-11-29T01:59:12.919Z,29.63
2022-11-29T02:01:41.063Z,28.60
2022-11-29T02:04:10.065Z,31.35
2022-11-29T02:06:39.679Z,24.80
2022-11-29T02:09:19.143Z,25.73
2022-11-29T02:12:09.170Z,26.00
2022-11-29T02:15:05.516Z,27.45
2022-11-29T02:17:44.950Z,25.75
2022-11-29T02:20:52.009Z,25.63
2022-11-29T02:23:41.887Z,24.98
2022-11-29T02:26:22.674Z,25.08
2022-11-29T02:29:13.370Z,26.77
2022-11-29T02:32:20.642Z,25.15
2022-11-29T02:35:12.290Z,28.00
2022-11-29T02:38:00.380Z,26.55
2022-11-29T02:41:02.332Z,26.05
2022-11-29T02:43:45.825Z,25.85
2022-11-29T02:46:41.083Z,25.77
2022-11-29T02:49:17.961Z,24.95
2022-11-29T02:51:55.254Z,24.88
2022-11-29T02:54:28.677Z,22.58
2022-11-29T02:57:01.626Z,25.23
2022-11-29T02:59:42.723Z,27.55
2022-11-29T03:02:21.666Z,24.58
2022-11-29T03:04:55.766Z,23.70
2022-11-29T03:07:33.659Z,24.95
2022-11-29T03:10:09.281Z,21.90
2022-11-29T03:12:42.840Z,23.25
2022-11-29T03:15:24.020Z,25.25
2022-11-29T03:18:02.952Z,22.20
2022-11-29T03:20:41.279Z,23.23
2022-11-29T03:23:19.970Z,22.45
2022-11-29T03:25:56.142Z,23.80
2022-11-29T03:28:28.526Z,23.20
2022-11-29T03:31:05.559Z,24.35
2022-11-29T03:33:42.794Z,25.90
2022-11-29T03:36:19.949Z,24.40
2022-11-29T03:38:49.589Z,24.00
2022-11-29T03:41:25.573Z,21.45
2022-11-29T03:44:02.374Z,23.58
2022-11-29T03:46:36.380Z,23.67
2022-11-29T03:49:10.222Z,20.40
2022-11-29T03:51:52.521Z,24.27
2022-11-29T03:54:28.231Z,23.80
2022-11-29T03:56:56.955Z,24.35
2022-11-29T03:59:48.395Z,26.02
2022-11-29T04:02:58.554Z,24.30
2022-11-29T04:06:03.238Z,23.77
2022-11-29T04:09:16.627Z,21.83
2022-11-29T04:12:21.744Z,23.73
2022-11-29T04:15:23.319Z,23.00
2022-11-29T04:18:33.557Z,22.85
2022-11-29T04:21:23.948Z,25.85
2022-11-29T04:24:14.330Z,24.60
2022-11-29T04:27:21.340Z,25.63
2022-11-29T04:30:07.213Z,22.75
2022-11-29T04:33:01.563Z,23.48
2022-11-29T04:35:43.266Z,24.38
2022-11-29T04:38:40.971Z,26.35
2022-11-29T04:41:44.361Z,28.70
2022-11-29T04:47:14.052Z,23.95
2022-11-29T04:50:05.761Z,28.20
2022-11-29T04:52:47.309Z,26.40
2022-11-29T04:55:29.414Z,26.92
2022-11-29T04:58:05.475Z,27.98
2022-11-29T05:00:44.675Z,26.92
2022-11-29T05:03:21.556Z,27.02
2022-11-29T05:05:56.560Z,24.90
2022-11-29T05:08:34.518Z,29.63
2022-11-29T05:11:11.888Z,30.60
2022-11-29T05:13:50.119Z,28.33
2022-11-29T05:16:33.942Z,29.52
2022-11-29T05:19:20.184Z,28.33
2022-11-29T05:22:00.232Z,29.35
2022-11-29T05:24:40.573Z,30.33
2022-11-29T05:27:19.568Z,28.45
2022-11-29T05:29:56.602Z,25.27
2022-11-29T05:32:32.743Z,25.83
2022-11-29T05:35:18.837Z,26.40
2022-11-29T05:37:51.563Z,24.42
2022-11-29T05:43:08.034Z,21.38
2022-11-29T05:45:43.889Z,25.90
2022-11-29T05:48:25.728Z,24.83
2022-11-29T05:51:10.695Z,23.08
2022-11-29T05:53:48.331Z,23.40
2022-11-29T05:56:26.985Z,24.02
2022-11-29T05:59:00.351Z,25.08
2022-11-29T06:01:32.946Z,26.45
2022-11-29T06:04:14.757Z,25.33
2022-11-29T06:06:49.301Z,24.35
2022-11-29T06:09:24.626Z,25.70
2022-11-29T06:11:58.572Z,24.13
2022-11-29T06:14:43.095Z,25.30
2022-11-29T06:17:39.640Z,22.92
2022-11-29T06:20:27.739Z,22.67
2022-11-29T06:23:18.056Z,25.52
2022-11-29T06:26:08.534Z,24.63
2022-11-29T06:28:53.095Z,23.33
2022-11-29T06:31:26.293Z,23.55
2022-11-29T06:34:02.312Z,24.05
2022-11-29T06:36:37.408Z,26.60
2022-11-29T06:39:06.693Z,23.95
2022-11-29T06:41:35.314Z,25.58
2022-11-29T06:44:03.945Z,26.42
2022-11-29T06:46:45.960Z,27.42
2022-11-29T06:49:21.300Z,25.77
2022-11-29T06:52:03.709Z,24.70
2022-11-29T06:54:43.343Z,28.58
2022-11-29T06:57:20.410Z,28.63
2022-11-29T07:00:02.912Z,25.60
2022-11-29T07:03:14.052Z,27.73
2022-11-29T07:05:42.939Z,27.20
2022-11-29T07:08:17.361Z,26.60
2022-11-29T07:10:46.531Z,30.88
2022-11-29T07:13:15.302Z,28.63
2022-11-29T07:15:49.686Z,24.73
2022-11-29T07:18:28.763Z,30.92
2022-11-29T07:21:11.631Z,26.52
2022-11-29T07:23:47.370Z,23.55
2022-11-29T07:26:31.367Z,28.27
2022-11-29T07:29:12.307Z,29.48
2022-11-29T07:31:51.288Z,28.85
2022-11-29T07:34:25.640Z,28.67
2022-11-29T07:37:03.045Z,31.75
2022-11-29T07:39:43.089Z,31.15
2022-11-29T07:42:20.242Z,30.67
2022-11-29T07:44:57.703Z,35.08
2022-11-29T07:47:25.778Z,28.50
2022-11-29T07:49:53.873Z,28.40
2022-11-29T07:52:23.575Z,30.25
2022-11-29T07:54:52.972Z,28.55
2022-11-29T07:57:21.320Z,35.15
2022-11-29T07:59:49.675Z,31.90
2022-11-29T08:02:27.796Z,31.02
2022-11-29T08:04:55.917Z,28.65
2022-11-29T08:07:24.055Z,30.67
2022-11-29T08:09:53.451Z,32.22
2022-11-29T08:12:21.916Z,32.58
2022-11-29T08:14:49.963Z,31.23
2022-11-29T08:17:18.976Z,28.98
2022-11-29T08:19:47.381Z,30.48
2022-11-29T08:22:15.748Z,32.03
2022-11-29T08:24:44.353Z,29.80
2022-11-29T08:27:13.923Z,30.23
2022-11-29T08:29:41.918Z,28.38
2022-11-29T08:32:10.237Z,29.85
2022-11-29T08:34:38.573Z,30.20
2022-11-29T08:37:06.693Z,31.35
2022-11-29T08:39:36.213Z,26.20
2022-11-29T08:42:04.318Z,30.75
2022-11-29T08:44:34.049Z,29.40
2022-11-29T08:47:20.145Z,31.40
2022-11-29T08:50:02.038Z,34.70
2022-11-29T08:52:48.241Z,34.42
2022-11-29T08:55:16.540Z,32.42
2022-11-29T08:57:44.550Z,31.48
2022-11-29T09:00:15.561Z,28.27
2022-11-29T09:02:43.701Z,30.90
2022-11-29T09:05:12.966Z,30.58
2022-11-29T09:07:41.148Z,29.27
2022-11-29T09:10:11.646Z,31.58
2022-11-29T09:12:41.409Z,31.83
2022-11-29T09:15:12.139Z,32.78
2022-11-29T09:17:41.640Z,33.22
2022-11-29T09:20:10.668Z,31.45
2022-11-29T09:22:38.772Z,32.15
2022-11-29T09:25:07.940Z,29.75
2022-11-29T09:27:35.929Z,30.73
2022-11-29T09:30:04.032Z,31.10
2022-11-29T09:32:32.403Z,28.67
2022-11-29T09:35:02.297Z,31.00
2022-11-29T09:37:30.437Z,32.53
2022-11-29T09:39:58.444Z,30.55
2022-11-29T09:42:41.341Z,31.10
2022-11-29T09:45:15.182Z,29.42
2022-11-29T09:48:06.422Z,29.85
2022-11-29T09:50:43.070Z,30.88
2022-11-29T09:53:26.598Z,30.20
2022-11-29T09:56:12.397Z,34.03
2022-11-29T09:58:47.555Z,33.13
2022-11-29T10:01:23.847Z,32.90
2022-11-29T10:03:55.761Z,35.28
2022-11-29T10:06:31.047Z,33.90
2022-11-29T10:09:05.494Z,31.48
2022-11-29T10:11:38.422Z,31.85
2022-11-29T10:14:13.658Z,32.53
2022-11-29T10:16:46.324Z,31.50
2022-11-29T10:19:22.715Z,32.58
2022-11-29T10:21:59.262Z,31.00
2022-11-29T10:24:30.775Z,28.10
2022-11-29T10:26:59.349Z,29.00
2022-11-29T10:29:28.056Z,29.75
2022-11-29T10:31:59.468Z,30.77
2022-11-29T10:34:28.077Z,30.70
2022-11-29T10:37:02.746Z,28.85
2022-11-29T10:39:37.367Z,30.63
2022-11-29T10:42:06.720Z,32.13
2022-11-29T10:44:35.387Z,32.88
2022-11-29T10:47:10.663Z,33.70
2022-11-29T10:49:40.351Z,29.13
2022-11-29T10:52:19.545Z,27.98
2022-11-29T10:54:48.581Z,31.65
2022-11-29T10:57:19.145Z,32.15
2022-11-29T11:00:01.048Z,35.40
2022-11-29T11:02:30.281Z,29.20
2022-11-29T11:05:00.241Z,30.63
2022-11-29T11:07:33.329Z,30.73
2022-11-29T11:10:02.789Z,29.95
2022-11-29T11:12:33.339Z,33.03
2022-11-29T11:15:28.763Z,31.65
2022-11-29T11:17:59.424Z,30.60
2022-11-29T11:20:30.330Z,31.15
2022-11-29T11:23:02.867Z,28.85
2022-11-29T11:25:34.755Z,30.92
2022-11-29T11:28:15.619Z,32.07
2022-11-29T11:30:52.338Z,29.23
2022-11-29T11:33:25.265Z,30.35
2022-11-29T11:36:05.151Z,32.42
2022-11-29T11:38:35.993Z,29.27
2022-11-29T11:41:18.025Z,29.63
2022-11-29T11:43:55.841Z,30.83
2022-11-29T11:46:24.547Z,30.42
2022-11-29T11:48:54.465Z,30.52
2022-11-29T11:51:27.212Z,31.08
2022-11-29T11:56:36.877Z,29.83
2022-11-29T11:59:05.399Z,31.40
2022-11-29T12:01:38.746Z,33.85
2022-11-29T12:04:13.048Z,28.23
2022-11-29T12:06:50.511Z,29.30
2022-11-29T12:09:31.980Z,30.73
2022-11-29T12:12:11.033Z,31.15
2022-11-29T12:14:50.925Z,30.45
2022-11-29T12:17:28.739Z,29.65
2022-11-29T12:20:23.748Z,30.95
2022-11-29T12:23:18.566Z,27.52
2022-11-29T12:25:53.722Z,33.97
2022-11-29T12:28:29.616Z,30.17
2022-11-29T12:31:04.616Z,30.65
2022-11-29T12:33:44.950Z,32.60
2022-11-29T12:36:27.389Z,31.65
2022-11-29T12:39:05.220Z,30.77
2022-11-29T12:41:50.937Z,31.85
2022-11-29T12:44:34.587Z,32.30
2022-11-29T12:50:22.812Z,31.42
2022-11-29T12:53:03.051Z,30.80
2022-11-29T12:55:40.823Z,31.52
2022-11-29T12:58:18.837Z,30.45
2022-11-29T13:00:58.884Z,31.30
2022-11-29T13:03:38.434Z,34.05
2022-11-29T13:06:22.036Z,33.30
2022-11-29T13:09:02.886Z,31.80
2022-11-29T13:11:33.709Z,36.88
2022-11-29T13:14:41.486Z,33.55
2022-11-29T13:17:05.096Z,34.50
2022-11-29T13:22:15.068Z,31.48
2022-11-29T13:24:45.453Z,31.27
2022-11-29T13:27:19.431Z,34.45
2022-11-29T13:29:50.292Z,35.38
2022-11-29T13:32:31.605Z,34.30
2022-11-29T13:35:04.564Z,32.58
2022-11-29T13:37:39.215Z,33.20
2022-11-29T13:40:23.134Z,35.15
2022-11-29T13:42:59.643Z,34.22
2022-11-29T13:45:38.412Z,34.00
2022-11-29T13:48:33.845Z,34.83
2022-11-29T13:51:24.243Z,33.20
2022-11-29T13:53:53.460Z,34.78
2022-11-29T13:56:36.849Z,33.97
2022-11-29T13:59:10.021Z,34.28
2022-11-29T14:01:51.659Z,33.50
2022-11-29T14:04:28.523Z,34.60
2022-11-29T14:07:12.363Z,34.78
2022-11-29T14:09:48.661Z,37.13
2022-11-29T14:12:28.848Z,33.50
2022-11-29T14:15:01.721Z,35.95
2022-11-29T14:17:46.768Z,35.88
2022-11-29T14:20:51.216Z,34.50
2022-11-29T14:23:33.234Z,37.17
2022-11-29T14:26:28.380Z,34.55
2022-11-29T14:28:57.467Z,36.80
2022-11-29T14:31:48.577Z,35.40
2022-11-29T14:34:36.328Z,38.53
2022-11-29T14:37:16.323Z,38.05
2022-11-29T14:39:47.731Z,36.75
2022-11-29T14:42:19.194Z,36.88
2022-11-29T14:44:52.304Z,36.15
2022-11-29T14:47:26.444Z,37.25
2022-11-29T14:49:59.130Z,34.08
2022-11-29T14:52:33.255Z,36.90
2022-11-29T14:55:18.534Z,38.50
2022-11-29T14:58:17.047Z,33.38
2022-11-29T15:01:02.709Z,34.20
2022-11-29T15:03:37.627Z,33.90
2022-11-29T15:06:26.871Z,37.33
2022-11-29T15:09:04.068Z,36.97
2022-11-29T15:11:40.599Z,36.33
2022-11-29T15:14:17.386Z,39.10
2022-11-29T15:17:00.704Z,36.35
2022-11-29T15:20:02.706Z,35.03
2022-11-29T15:22:44.065Z,35.10
2022-11-29T15:25:14.941Z,38.38
2022-11-29T15:27:52.411Z,37.08
2022-11-29T15:30:22.912Z,35.15
2022-11-29T15:32:51.158Z,38.40
2022-11-29T15:35:21.044Z,35.58
2022-11-29T15:37:53.288Z,38.47
2022-11-29T15:40:24.543Z,38.92
2022-11-29T15:42:58.110Z,39.58
2022-11-29T15:45:30.263Z,38.67
2022-11-29T15:48:13.633Z,38.88
2022-11-29T15:51:28.309Z,39.20
2022-11-29T15:54:12.751Z,39.20
2022-11-29T15:56:46.240Z,39.45
2022-11-29T16:01:50.147Z,37.40
2022-11-29T16:04:21.810Z,39.53
2022-11-29T16:06:52.255Z,35.33
2022-11-29T16:09:34.376Z,38.58
2022-11-29T16:12:03.530Z,38.67
2022-11-29T16:14:32.210Z,39.58
2022-11-29T16:17:03.803Z,38.53
2022-11-29T16:19:34.759Z,37.05
2022-11-29T16:22:15.688Z,38.83
2022-11-29T16:24:55.079Z,37.78
2022-11-29T16:27:23.910Z,36.75
2022-11-29T16:29:55.425Z,37.85
2022-11-29T16:32:28.599Z,36.08
2022-11-29T16:34:58.567Z,36.78
2022-11-29T16:37:28.113Z,37.38
2022-11-29T16:40:01.482Z,33.88
2022-11-29T16:42:32.116Z,35.63
2022-11-29T16:45:34.313Z,33.20
2022-11-29T16:48:03.176Z,36.33
2022-11-29T16:50:32.748Z,38.63
2022-11-29T16:53:35.168Z,38.95
2022-11-29T16:56:05.587Z,37.83
2022-11-29T16:58:40.146Z,35.33
2022-11-29T17:01:26.391Z,35.17
2022-11-29T17:03:55.811Z,33.97
2022-11-29T17:06:25.577Z,34.05
2022-11-29T17:08:55.906Z,32.33
2022-11-29T17:11:25.323Z,39.10
2022-11-29T17:13:53.948Z,36.10
2022-11-29T17:16:23.966Z,33.90
2022-11-29T17:18:55.871Z,35.72
2022-11-29T17:21:28.482Z,37.13
2022-11-29T17:23:56.864Z,40.80
2022-11-29T17:26:27.851Z,37.42
2022-11-29T17:28:56.410Z,36.72
2022-11-29T17:31:25.704Z,39.30
2022-11-29T17:33:54.431Z,36.35
2022-11-29T17:36:23.673Z,34.03
2022-11-29T17:38:53.117Z,34.67
2022-11-29T17:41:23.874Z,36.38
2022-11-29T17:43:55.405Z,35.97
2022-11-29T17:46:28.321Z,35.58
2022-11-29T17:48:56.982Z,34.97
2022-11-29T17:54:14.416Z,34.53
2022-11-29T17:56:43.125Z,36.03
2022-11-29T17:59:13.610Z,33.58
2022-11-29T18:01:42.149Z,34.67
2022-11-29T18:04:10.532Z,35.03
2022-11-29T18:06:41.001Z,33.20
2022-11-29T18:09:11.080Z,34.85
2022-11-29T18:11:47.716Z,34.40
2022-11-29T18:14:21.033Z,33.38
2022-11-29T18:16:50.461Z,34.42
2022-11-29T18:19:20.940Z,36.80
2022-11-29T18:21:50.260Z,37.33
2022-11-29T18:24:19.864Z,37.65
2022-11-29T18:26:51.402Z,36.97
2022-11-29T18:29:22.051Z,35.58
2022-11-29T18:31:50.920Z,38.83
2022-11-29T18:34:19.341Z,36.95
2022-11-29T18:36:49.947Z,37.60
2022-11-29T18:39:19.752Z,38.13
2022-11-29T18:41:50.941Z,36.03
2022-11-29T18:44:24.792Z,34.92
2022-11-29T18:46:53.314Z,39.60
2022-11-29T18:49:21.892Z,37.50
2022-11-29T18:51:53.365Z,39.80
2022-11-29T18:54:21.928Z,40.45
2022-11-29T18:56:53.370Z,40.03
2022-11-29T18:59:25.175Z,37.35
2022-11-29T19:01:53.773Z,39.15
2022-11-29T19:04:22.796Z,39.47
2022-11-29T19:06:51.995Z,40.38
2022-11-29T19:09:25.915Z,42.13
2022-11-29T19:11:56.088Z,40.03
2022-11-29T19:14:26.382Z,43.58
2022-11-29T19:16:54.811Z,42.38
2022-11-29T19:19:24.445Z,41.22
2022-11-29T19:21:55.740Z,42.70
2022-11-29T19:24:24.348Z,42.58
2022-11-29T19:26:56.195Z,42.17
2022-11-29T19:29:26.318Z,43.50
2022-11-29T19:31:55.879Z,39.15
2022-11-29T19:34:24.447Z,40.40
2022-11-29T19:36:55.410Z,39.60
2022-11-29T19:39:24.329Z,40.85
2022-11-29T19:41:53.553Z,41.17
2022-11-29T19:44:26.518Z,42.58
2022-11-29T19:47:00.394Z,39.42
2022-11-29T19:49:28.741Z,41.17
2022-11-29T19:51:57.335Z,39.33
2022-11-29T19:54:26.521Z,41.90
2022-11-29T19:56:56.316Z,39.33
2022-11-29T19:59:24.996Z,39.97
2022-11-29T20:01:54.229Z,38.33
2022-11-29T20:04:27.375Z,41.92
2022-11-29T20:06:56.207Z,38.38
2022-11-29T20:09:24.809Z,39.70
2022-11-29T20:11:54.168Z,39.00
2022-11-29T20:14:25.382Z,38.22
2022-11-29T20:16:53.986Z,40.00
2022-11-29T20:19:23.983Z,38.15
2022-11-29T20:21:53.406Z,41.10
2022-11-29T20:24:23.779Z,39.67
2022-11-29T20:26:53.823Z,40.72
2022-11-29T20:29:27.745Z,38.17
2022-11-29T20:31:56.333Z,39.45
2022-11-29T20:34:27.439Z,36.38
2022-11-29T20:37:17.941Z,36.72
2022-11-29T20:39:52.479Z,31.77
2022-11-29T20:42:45.904Z,34.22
2022-11-29T20:45:17.645Z,35.58
2022-11-29T20:47:55.420Z,32.20
2022-11-29T20:50:27.241Z,32.72
2022-11-29T20:53:10.207Z,30.00
2022-11-29T20:55:46.439Z,29.65
2022-11-29T20:58:17.119Z,29.23
2022-11-29T21:00:45.849Z,27.40
2022-11-29T21:03:15.081Z,28.48
2022-11-29T21:05:49.017Z,26.65
2022-11-29T21:08:21.442Z,27.92
2022-11-29T21:10:50.278Z,25.65
2022-11-29T21:13:20.754Z,27.27
2022-11-29T21:15:50.737Z,26.35
2022-11-29T21:18:24.028Z,26.48
2022-11-29T21:21:03.373Z,27.38
2022-11-29T21:23:44.471Z,28.85
2022-11-29T21:26:20.629Z,29.10
2022-11-29T21:28:59.142Z,26.10
2022-11-29T21:31:27.906Z,24.50
2022-11-29T21:33:56.765Z,23.90
2022-11-29T21:36:26.804Z,24.45
2022-11-29T21:38:55.704Z,25.08
2022-11-29T21:41:24.475Z,22.98
2022-11-29T21:44:08.750Z,25.98
2022-11-29T21:46:37.820Z,22.73
2022-11-29T21:49:06.632Z,26.30
2022-11-29T21:51:36.260Z,25.48
2022-11-29T21:54:04.491Z,24.88
2022-11-29T21:56:33.037Z,25.83
2022-11-29T21:59:01.219Z,25.80
2022-11-29T22:01:29.706Z,25.67
2022-11-29T22:03:58.241Z,22.80
2022-11-29T22:06:28.138Z,24.38
2022-11-29T22:08:58.259Z,25.50
2022-11-29T22:11:35.098Z,24.05
2022-11-29T22:14:18.514Z,23.25
2022-11-29T22:16:49.244Z,24.55
2022-11-29T22:19:19.526Z,24.02
2022-11-29T22:21:49.692Z,24.60
2022-11-29T22:24:21.166Z,22.33
2022-11-29T22:26:52.450Z,22.15
2022-11-29T22:29:21.865Z,20.65
2022-11-29T22:31:52.951Z,24.17
2022-11-29T22:34:25.602Z,22.83
2022-11-29T22:36:54.153Z,25.75
2022-11-29T22:39:27.691Z,22.15
2022-11-29T22:41:55.909Z,23.60
2022-11-29T22:44:24.179Z,23.63
2022-11-29T22:46:53.011Z,22.23
2022-11-29T22:49:21.456Z,22.60
2022-11-29T22:51:50.749Z,22.10
2022-11-29T22:54:18.934Z,22.17
2022-11-29T22:56:48.795Z,22.55
2022-11-29T22:59:17.373Z,20.73
2022-11-29T23:01:45.983Z,22.35
2022-11-29T23:04:15.876Z,19.67
2022-11-29T23:06:45.302Z,22.48
2022-11-29T23:09:16.693Z,19.55
2022-11-29T23:11:45.961Z,22.95
2022-11-29T23:14:15.476Z,20.08
2022-11-29T23:16:46.936Z,21.45
2022-11-29T23:19:15.633Z,20.30
2022-11-29T23:21:45.989Z,20.60
2022-11-29T23:24:15.957Z,21.30
2022-11-29T23:26:45.675Z,20.17
2022-11-29T23:29:17.605Z,21.33
2022-11-29T23:31:48.545Z,19.83
2022-11-29T23:34:16.883Z,19.38
2022-11-29T23:36:51.137Z,18.65
2022-11-29T23:39:23.109Z,21.27
2022-11-29T23:41:51.155Z,21.45
2022-11-29T23:44:20.947Z,20.75
2022-11-29T23:46:49.234Z,20.67
2022-11-29T23:49:17.546Z,21.00
2022-11-29T23:51:45.580Z,20.17
2022-11-29T23:54:13.638Z,20.05
2022-11-29T23:56:42.894Z,20.13
2022-11-29T23:59:11.624Z,21.45
